TimeCDT,TemperatureF,Dew PointF,Humidity,Sea Level PressureIn,VisibilityMPH,Wind Direction,Wind SpeedMPH,Gust SpeedMPH,PrecipitationIn,Events,Conditions,WindDirDegrees,DateUTC
12:15 AM,75.2,64.4,69,30.08,10.0,South,3.5,-,N/A,,Clear,170,2013-08-12 05:15:00
12:35 AM,75.2,64.4,69,30.08,10.0,South,3.5,-,N/A,,Clear,170,2013-08-12 05:35:00
12:55 AM,75.2,64.4,69,30.07,10.0,Calm,Calm,-,N/A,,Scattered Clouds,0,2013-08-12 05:55:00
1:15 AM,75.2,64.4,69,30.06,10.0,SE,4.6,-,N/A,,Scattered Clouds,130,2013-08-12 06:15:00
1:35 AM,75.2,64.4,69,30.06,10.0,SE,4.6,-,N/A,,Clear,130,2013-08-12 06:35:00
1:55 AM,75.2,64.4,69,30.06,10.0,SSE,3.5,-,N/A,,Clear,150,2013-08-12 06:55:00
2:15 AM,75.2,64.4,69,30.06,10.0,Calm,Calm,-,N/A,,Clear,0,2013-08-12 07:15:00
2:35 AM,75.2,64.4,69,30.05,10.0,Calm,Calm,-,N/A,,Scattered Clouds,0,2013-08-12 07:35:00
2:55 AM,75.2,64.4,69,30.06,10.0,Calm,Calm,-,N/A,,Mostly Cloudy,0,2013-08-12 07:55:00
3:15 AM,75.2,64.4,69,30.05,10.0,Calm,Calm,-,N/A,,Overcast,0,2013-08-12 08:15:00
3:35 AM,75.2,64.4,69,30.05,10.0,SSW,3.5,-,0.04,Thunderstorm,Mostly Cloudy,200,2013-08-12 08:35:00
3:55 AM,75.2,64.4,69,30.05,10.0,Calm,Calm,-,0.04,Thunderstorm,Overcast,0,2013-08-12 08:55:00
4:15 AM,75.2,64.4,69,30.04,10.0,Calm,Calm,-,N/A,,Overcast,0,2013-08-12 09:15:00
4:35 AM,73.4,64.4,73,30.04,10.0,SE,3.5,-,N/A,,Mostly Cloudy,130,2013-08-12 09:35:00
4:55 AM,75.2,64.4,69,30.04,9.0,Calm,Calm,-,N/A,,Mostly Cloudy,0,2013-08-12 09:55:00
5:15 AM,75.2,64.4,69,30.05,10.0,Calm,Calm,-,N/A,,Mostly Cloudy,0,2013-08-12 10:15:00
5:35 AM,75.2,64.4,69,30.05,10.0,Calm,Calm,-,N/A,,Scattered Clouds,0,2013-08-12 10:35:00
5:55 AM,73.4,64.4,73,30.05,10.0,Calm,Calm,-,N/A,,Scattered Clouds,0,2013-08-12 10:55:00
6:15 AM,75.2,64.4,69,30.06,10.0,Calm,Calm,-,N/A,Thunderstorm,Mostly Cloudy,0,2013-08-12 11:15:00
6:35 AM,75.2,64.4,69,30.06,8.0,Calm,Calm,-,0.01,Thunderstorm,Thunderstorm,0,2013-08-12 11:35:00
6:55 AM,75.2,64.4,69,30.06,1.5,NNE,8.1,-,0.21,Thunderstorm,Thunderstorm,30,2013-08-12 11:55:00
7:15 AM,73.4,64.4,73,30.06,5.0,Calm,Calm,-,0.14,Thunderstorm,Mostly Cloudy,0,2013-08-12 12:15:00
7:35 AM,75.2,64.4,69,30.06,10.0,Calm,Calm,-,0.14,,Overcast,0,2013-08-12 12:35:00
7:55 AM,75.2,64.4,69,30.06,9.0,ESE,3.5,-,0.14,,Overcast,110,2013-08-12 12:55:00
8:15 AM,75.2,64.4,69,30.05,7.0,SE,3.5,-,N/A,,Scattered Clouds,140,2013-08-12 13:15:00
8:35 AM,75.2,64.4,69,30.06,9.0,East,5.8,-,N/A,,Clear,90,2013-08-12 13:35:00
8:55 AM,75.2,66.2,73,30.06,10.0,SSE,4.6,-,N/A,,Scattered Clouds,150,2013-08-12 13:55:00
9:15 AM,77.0,66.2,69,30.05,10.0,South,6.9,-,N/A,,Scattered Clouds,180,2013-08-12 14:15:00
9:35 AM,78.8,66.2,65,30.05,10.0,South,6.9,-,N/A,,Mostly Cloudy,180,2013-08-12 14:35:00
9:55 AM,78.8,66.2,65,30.06,4.0,SSW,3.5,-,N/A,,Mostly Cloudy,210,2013-08-12 14:55:00
10:15 AM,80.6,66.2,61,30.06,10.0,SW,4.6,-,N/A,,Overcast,230,2013-08-12 15:15:00
10:35 AM,80.6,66.2,61,30.06,10.0,WSW,5.8,-,N/A,,Overcast,240,2013-08-12 15:35:00
10:55 AM,82.4,66.2,58,30.06,10.0,SSW,3.5,-,0.01,,Mostly Cloudy,200,2013-08-12 15:55:00
11:15 AM,80.6,66.2,61,30.06,8.0,South,8.1,-,0.16,,Mostly Cloudy,190,2013-08-12 16:15:00
11:35 AM,80.6,66.2,61,30.05,10.0,SW,5.8,-,0.19,Thunderstorm,Overcast,230,2013-08-12 16:35:00
11:55 AM,82.4,68.0,62,30.05,10.0,SSW,5.8,-,0.19,,Mostly Cloudy,210,2013-08-12 16:55:00
12:15 PM,84.2,69.8,62,30.03,10.0,South,5.8,-,N/A,,Overcast,190,2013-08-12 17:15:00
12:35 PM,84.2,68.0,58,30.03,10.0,South,3.5,-,N/A,,Overcast,190,2013-08-12 17:35:00
12:55 PM,86.0,69.8,58,30.01,10.0,SSW,6.9,-,N/A,,Mostly Cloudy,210,2013-08-12 17:55:00
1:15 PM,87.8,69.8,55,29.99,10.0,South,5.8,-,N/A,,Mostly Cloudy,190,2013-08-12 18:15:00
1:35 PM,87.8,69.8,55,29.98,10.0,SW,4.6,-,N/A,,Mostly Cloudy,220,2013-08-12 18:35:00
1:55 PM,87.8,69.8,55,29.98,10.0,WSW,6.9,-,N/A,,Mostly Cloudy,250,2013-08-12 18:55:00
2:15 PM,89.6,69.8,52,29.96,10.0,WSW,9.2,-,N/A,,Mostly Cloudy,240,2013-08-12 19:15:00
2:35 PM,89.6,69.8,52,29.96,10.0,SW,11.5,-,N/A,,Scattered Clouds,230,2013-08-12 19:35:00
2:55 PM,89.6,69.8,52,29.95,10.0,WSW,11.5,-,N/A,Thunderstorm,Mostly Cloudy,240,2013-08-12 19:55:00
3:15 PM,89.6,69.8,52,29.94,10.0,SW,8.1,-,N/A,,Mostly Cloudy,220,2013-08-12 20:15:00
3:35 PM,89.6,69.8,52,29.94,10.0,SW,9.2,-,N/A,,Mostly Cloudy,230,2013-08-12 20:35:00
3:55 PM,89.6,69.8,52,29.94,10.0,WSW,5.8,-,N/A,,Mostly Cloudy,250,2013-08-12 20:55:00
4:15 PM,87.8,69.8,55,29.95,10.0,WSW,18.4,25.3,0.03,,Mostly Cloudy,250,2013-08-12 21:15:00
4:35 PM,80.6,64.4,58,29.95,10.0,West,5.8,-,0.23,Thunderstorm,Thunderstorm,260,2013-08-12 21:35:00
4:55 PM,80.6,66.2,61,29.93,9.0,WSW,4.6,-,0.23,Thunderstorm,Mostly Cloudy,250,2013-08-12 21:55:00
5:15 PM,80.6,66.2,61,29.94,10.0,SSW,3.5,-,N/A,,Scattered Clouds,210,2013-08-12 22:15:00
5:35 PM,80.6,64.4,58,29.93,9.0,SW,6.9,-,N/A,,Overcast,220,2013-08-12 22:35:00
5:55 PM,78.8,64.4,61,29.93,9.0,SSW,4.6,-,N/A,Thunderstorm,Thunderstorm,200,2013-08-12 22:55:00
6:15 PM,75.2,62.6,65,29.95,10.0,SW,6.9,-,0.01,Thunderstorm,Mostly Cloudy,230,2013-08-12 23:15:00
6:35 PM,75.2,62.6,65,29.94,10.0,SW,10.4,-,0.01,,Overcast,230,2013-08-12 23:35:00
6:56 PM,75.2,64.4,69,29.93,10.0,WSW,8.1,-,N/A,,Scattered Clouds,240,2013-08-12 23:56:00
7:15 PM,75.2,64.4,69,29.93,10.0,West,6.9,-,N/A,,Clear,260,2013-08-13 00:15:00
7:35 PM,75.2,64.4,69,29.93,10.0,WSW,5.8,-,N/A,,Clear,250,2013-08-13 00:35:00
7:55 PM,75.2,64.4,69,29.95,10.0,West,4.6,-,N/A,,Clear,280,2013-08-13 00:55:00
8:15 PM,75.2,62.6,65,29.96,10.0,NW,3.5,-,N/A,,Clear,320,2013-08-13 01:15:00
8:35 PM,75.2,62.6,65,29.97,10.0,Calm,Calm,-,N/A,,Clear,0,2013-08-13 01:35:00
8:55 PM,75.2,62.6,65,29.98,10.0,Calm,Calm,-,N/A,,Clear,0,2013-08-13 01:55:00
9:15 PM,73.4,62.6,69,30.00,10.0,SE,3.5,-,N/A,,Mostly Cloudy,140,2013-08-13 02:15:00
9:35 PM,73.4,62.6,69,30.01,10.0,SSE,5.8,-,N/A,,Overcast,150,2013-08-13 02:35:00
9:55 PM,73.4,62.6,69,30.01,10.0,South,5.8,-,N/A,,Overcast,170,2013-08-13 02:55:00
10:15 PM,73.4,62.6,69,29.99,10.0,South,3.5,-,N/A,,Overcast,180,2013-08-13 03:15:00
10:35 PM,71.6,62.6,73,29.98,10.0,South,4.6,-,N/A,,Mostly Cloudy,180,2013-08-13 03:35:00
10:55 PM,71.6,60.8,69,29.97,10.0,Calm,Calm,-,N/A,,Mostly Cloudy,0,2013-08-13 03:55:00